sensor_id;sensor_type;location;lat;lon;timestamp;P1;durP1;ratioP1;P2;durP2;ratioP2
17696;SDS011;8967;47.984;7.842;2023-05-17T00:02:27;12.18;;;2.72;;
17696;SDS011;8967;47.984;7.842;2023-05-17T00:04:54;5.60;;;2.33;;
17696;SDS011;8967;47.984;7.842;2023-05-17T00:07:21;6.60;;;2.55;;
17696;SDS011;8967;47.984;7.842;2023-05-17T00:09:49;11.88;;;2.65;;
17696;SDS011;8967;47.984;7.842;2023-05-17T00:12:16;10.05;;;2.58;;
17696;SDS011;8967;47.984;7.842;2023-05-17T00:14:43;10.68;;;2.85;;
17696;SDS011;8967;47.984;7.842;2023-05-17T00:17:09;5.20;;;2.40;;
17696;SDS011;8967;47.984;7.842;2023-05-17T00:19:36;4.20;;;2.47;;
17696;SDS011;8967;47.984;7.842;2023-05-17T00:22:03;7.72;;;2.30;;
17696;SDS011;8967;47.984;7.842;2023-05-17T00:24:32;6.00;;;2.40;;
17696;SDS011;8967;47.984;7.842;2023-05-17T00:27:01;8.57;;;2.83;;
17696;SDS011;8967;47.984;7.842;2023-05-17T00:29:27;7.30;;;2.95;;
17696;SDS011;8967;47.984;7.842;2023-05-17T00:31:55;4.85;;;2.40;;
17696;SDS011;8967;47.984;7.842;2023-05-17T00:34:21;7.65;;;2.95;;
17696;SDS011;8967;47.984;7.842;2023-05-17T00:36:48;7.25;;;2.63;;
17696;SDS011;8967;47.984;7.842;2023-05-17T00:39:15;3.58;;;2.10;;
17696;SDS011;8967;47.984;7.842;2023-05-17T00:41:42;5.70;;;2.13;;
17696;SDS011;8967;47.984;7.842;2023-05-17T00:44:11;4.53;;;2.30;;
17696;SDS011;8967;47.984;7.842;2023-05-17T00:46:37;4.22;;;2.10;;
17696;SDS011;8967;47.984;7.842;2023-05-17T00:49:06;5.78;;;2.15;;
17696;SDS011;8967;47.984;7.842;2023-05-17T00:51:33;3.85;;;2.10;;
17696;SDS011;8967;47.984;7.842;2023-05-17T00:54:03;5.95;;;1.90;;
17696;SDS011;8967;47.984;7.842;2023-05-17T00:56:30;7.85;;;2.75;;
17696;SDS011;8967;47.984;7.842;2023-05-17T00:59:00;5.25;;;2.10;;
17696;SDS011;8967;47.984;7.842;2023-05-17T01:01:29;4.93;;;2.13;;
17696;SDS011;8967;47.984;7.842;2023-05-17T01:03:57;4.45;;;2.08;;
17696;SDS011;8967;47.984;7.842;2023-05-17T01:06:26;6.53;;;2.20;;
17696;SDS011;8967;47.984;7.842;2023-05-17T01:08:53;6.18;;;1.92;;
17696;SDS011;8967;47.984;7.842;2023-05-17T01:11:23;8.30;;;2.03;;
17696;SDS011;8967;47.984;7.842;2023-05-17T01:13:57;8.38;;;1.90;;
17696;SDS011;8967;47.984;7.842;2023-05-17T01:16:37;4.60;;;2.20;;
17696;SDS011;8967;47.984;7.842;2023-05-17T01:19:07;5.72;;;2.17;;
17696;SDS011;8967;47.984;7.842;2023-05-17T01:21:53;5.18;;;1.70;;
17696;SDS011;8967;47.984;7.842;2023-05-17T01:24:29;5.45;;;1.80;;
17696;SDS011;8967;47.984;7.842;2023-05-17T01:27:07;2.95;;;1.77;;
17696;SDS011;8967;47.984;7.842;2023-05-17T01:29:35;9.27;;;2.05;;
17696;SDS011;8967;47.984;7.842;2023-05-17T01:32:05;5.38;;;2.00;;
17696;SDS011;8967;47.984;7.842;2023-05-17T01:34:35;5.95;;;2.20;;
17696;SDS011;8967;47.984;7.842;2023-05-17T01:37:02;6.28;;;2.33;;
17696;SDS011;8967;47.984;7.842;2023-05-17T01:39:30;3.42;;;1.90;;
17696;SDS011;8967;47.984;7.842;2023-05-17T01:41:59;3.63;;;2.00;;
17696;SDS011;8967;47.984;7.842;2023-05-17T01:44:32;7.03;;;2.30;;
17696;SDS011;8967;47.984;7.842;2023-05-17T01:47:08;5.57;;;2.17;;
17696;SDS011;8967;47.984;7.842;2023-05-17T01:49:39;5.40;;;2.63;;
17696;SDS011;8967;47.984;7.842;2023-05-17T01:52:15;5.25;;;2.58;;
17696;SDS011;8967;47.984;7.842;2023-05-17T01:54:45;8.25;;;3.88;;
17696;SDS011;8967;47.984;7.842;2023-05-17T01:57:16;11.00;;;4.07;;
17696;SDS011;8967;47.984;7.842;2023-05-17T01:59:47;19.27;;;5.20;;
17696;SDS011;8967;47.984;7.842;2023-05-17T02:02:15;20.40;;;5.45;;
17696;SDS011;8967;47.984;7.842;2023-05-17T02:04:42;20.23;;;5.22;;
17696;SDS011;8967;47.984;7.842;2023-05-17T02:07:09;28.67;;;6.85;;
17696;SDS011;8967;47.984;7.842;2023-05-17T02:09:36;35.38;;;8.32;;
17696;SDS011;8967;47.984;7.842;2023-05-17T02:12:03;30.30;;;9.65;;
17696;SDS011;8967;47.984;7.842;2023-05-17T02:14:32;30.00;;;8.32;;
17696;SDS011;8967;47.984;7.842;2023-05-17T02:17:01;40.70;;;10.23;;
17696;SDS011;8967;47.984;7.842;2023-05-17T02:19:29;36.47;;;10.35;;
17696;SDS011;8967;47.984;7.842;2023-05-17T02:21:56;34.95;;;9.20;;
17696;SDS011;8967;47.984;7.842;2023-05-17T02:24:28;36.75;;;9.65;;
17696;SDS011;8967;47.984;7.842;2023-05-17T02:26:55;34.25;;;8.82;;
17696;SDS011;8967;47.984;7.842;2023-05-17T02:29:23;33.97;;;9.15;;
17696;SDS011;8967;47.984;7.842;2023-05-17T02:31:50;26.63;;;8.20;;
17696;SDS011;8967;47.984;7.842;2023-05-17T02:34:21;32.92;;;8.93;;
17696;SDS011;8967;47.984;7.842;2023-05-17T02:36:48;22.38;;;7.65;;
17696;SDS011;8967;47.984;7.842;2023-05-17T02:39:16;24.67;;;7.10;;
17696;SDS011;8967;47.984;7.842;2023-05-17T02:41:43;18.40;;;5.18;;
17696;SDS011;8967;47.984;7.842;2023-05-17T02:44:10;11.23;;;3.90;;
17696;SDS011;8967;47.984;7.842;2023-05-17T02:46:37;22.05;;;4.05;;
17696;SDS011;8967;47.984;7.842;2023-05-17T02:49:04;13.30;;;3.65;;
17696;SDS011;8967;47.984;7.842;2023-05-17T02:51:32;7.63;;;2.92;;
17696;SDS011;8967;47.984;7.842;2023-05-17T02:54:00;10.20;;;3.35;;
17696;SDS011;8967;47.984;7.842;2023-05-17T02:56:26;9.88;;;2.80;;
17696;SDS011;8967;47.984;7.842;2023-05-17T02:58:53;10.77;;;2.95;;
17696;SDS011;8967;47.984;7.842;2023-05-17T03:01:22;5.82;;;2.50;;
17696;SDS011;8967;47.984;7.842;2023-05-17T03:03:49;6.28;;;2.47;;
17696;SDS011;8967;47.984;7.842;2023-05-17T03:06:16;10.50;;;2.78;;
17696;SDS011;8967;47.984;7.842;2023-05-17T03:08:45;8.38;;;2.65;;
17696;SDS011;8967;47.984;7.842;2023-05-17T03:11:12;6.63;;;2.58;;
17696;SDS011;8967;47.984;7.842;2023-05-17T03:13:39;8.27;;;2.67;;
17696;SDS011;8967;47.984;7.842;2023-05-17T03:16:06;14.32;;;2.63;;
17696;SDS011;8967;47.984;7.842;2023-05-17T03:18:34;4.68;;;2.28;;
17696;SDS011;8967;47.984;7.842;2023-05-17T03:21:03;8.27;;;2.70;;
17696;SDS011;8967;47.984;7.842;2023-05-17T03:23:30;5.45;;;2.40;;
17696;SDS011;8967;47.984;7.842;2023-05-17T03:26:00;7.97;;;2.20;;
17696;SDS011;8967;47.984;7.842;2023-05-17T03:28:31;4.15;;;2.58;;
17696;SDS011;8967;47.984;7.842;2023-05-17T03:30:59;4.75;;;1.90;;
17696;SDS011;8967;47.984;7.842;2023-05-17T03:33:31;5.30;;;2.10;;
17696;SDS011;8967;47.984;7.842;2023-05-17T03:35:59;5.30;;;1.42;;
17696;SDS011;8967;47.984;7.842;2023-05-17T03:38:26;2.13;;;1.70;;
17696;SDS011;8967;47.984;7.842;2023-05-17T03:40:53;2.97;;;1.65;;
17696;SDS011;8967;47.984;7.842;2023-05-17T03:43:22;4.40;;;1.63;;
17696;SDS011;8967;47.984;7.842;2023-05-17T03:45:49;3.33;;;1.70;;
17696;SDS011;8967;47.984;7.842;2023-05-17T03:48:17;5.72;;;1.98;;
17696;SDS011;8967;47.984;7.842;2023-05-17T03:50:46;3.35;;;2.10;;
17696;SDS011;8967;47.984;7.842;2023-05-17T03:53:13;4.78;;;1.60;;
17696;SDS011;8967;47.984;7.842;2023-05-17T03:55:42;3.45;;;2.40;;
17696;SDS011;8967;47.984;7.842;2023-05-17T03:58:09;6.80;;;1.90;;
17696;SDS011;8967;47.984;7.842;2023-05-17T04:00:40;7.82;;;1.52;;
17696;SDS011;8967;47.984;7.842;2023-05-17T04:03:12;4.75;;;1.38;;
17696;SDS011;8967;47.984;7.842;2023-05-17T04:05:39;3.58;;;1.50;;
17696;SDS011;8967;47.984;7.842;2023-05-17T04:08:07;1.88;;;1.33;;
17696;SDS011;8967;47.984;7.842;2023-05-17T04:10:34;4.60;;;1.52;;
17696;SDS011;8967;47.984;7.842;2023-05-17T04:13:02;3.67;;;1.83;;
17696;SDS011;8967;47.984;7.842;2023-05-17T04:15:29;5.97;;;1.75;;
17696;SDS011;8967;47.984;7.842;2023-05-17T04:17:58;4.32;;;1.55;;
17696;SDS011;8967;47.984;7.842;2023-05-17T04:20:25;4.32;;;1.38;;
17696;SDS011;8967;47.984;7.842;2023-05-17T04:22:52;6.68;;;2.17;;
17696;SDS011;8967;47.984;7.842;2023-05-17T04:25:19;2.63;;;1.67;;
17696;SDS011;8967;47.984;7.842;2023-05-17T04:27:48;2.47;;;1.65;;
17696;SDS011;8967;47.984;7.842;2023-05-17T04:30:16;5.20;;;1.80;;
17696;SDS011;8967;47.984;7.842;2023-05-17T04:32:45;5.50;;;1.85;;
17696;SDS011;8967;47.984;7.842;2023-05-17T04:35:14;4.68;;;1.70;;
17696;SDS011;8967;47.984;7.842;2023-05-17T04:37:44;3.78;;;1.58;;
17696;SDS011;8967;47.984;7.842;2023-05-17T04:40:18;3.33;;;1.23;;
17696;SDS011;8967;47.984;7.842;2023-05-17T04:42:47;2.95;;;1.27;;
17696;SDS011;8967;47.984;7.842;2023-05-17T04:45:16;1.77;;;1.30;;
17696;SDS011;8967;47.984;7.842;2023-05-17T04:47:43;2.40;;;1.40;;
17696;SDS011;8967;47.984;7.842;2023-05-17T04:50:15;5.07;;;1.35;;
17696;SDS011;8967;47.984;7.842;2023-05-17T04:52:45;4.40;;;1.60;;
17696;SDS011;8967;47.984;7.842;2023-05-17T04:55:16;5.07;;;1.80;;
17696;SDS011;8967;47.984;7.842;2023-05-17T04:57:43;3.00;;;1.40;;
17696;SDS011;8967;47.984;7.842;2023-05-17T05:00:13;1.88;;;1.23;;
17696;SDS011;8967;47.984;7.842;2023-05-17T05:02:45;5.57;;;1.50;;
17696;SDS011;8967;47.984;7.842;2023-05-17T05:05:13;3.67;;;1.50;;
17696;SDS011;8967;47.984;7.842;2023-05-17T05:07:43;3.58;;;1.27;;
17696;SDS011;8967;47.984;7.842;2023-05-17T05:10:11;3.03;;;1.13;;
17696;SDS011;8967;47.984;7.842;2023-05-17T05:12:38;3.25;;;1.63;;
17696;SDS011;8967;47.984;7.842;2023-05-17T05:15:08;2.88;;;1.50;;
17696;SDS011;8967;47.984;7.842;2023-05-17T05:17:37;2.92;;;1.52;;
17696;SDS011;8967;47.984;7.842;2023-05-17T05:20:05;1.52;;;0.98;;
17696;SDS011;8967;47.984;7.842;2023-05-17T05:22:35;4.60;;;1.45;;
17696;SDS011;8967;47.984;7.842;2023-05-17T05:25:02;3.80;;;1.83;;
17696;SDS011;8967;47.984;7.842;2023-05-17T05:27:31;5.43;;;2.17;;
17696;SDS011;8967;47.984;7.842;2023-05-17T05:29:59;11.77;;;4.97;;
17696;SDS011;8967;47.984;7.842;2023-05-17T05:32:30;7.00;;;3.17;;
17696;SDS011;8967;47.984;7.842;2023-05-17T05:34:57;7.45;;;2.15;;
17696;SDS011;8967;47.984;7.842;2023-05-17T05:37:24;3.63;;;1.77;;
17696;SDS011;8967;47.984;7.842;2023-05-17T05:39:53;3.28;;;2.13;;
17696;SDS011;8967;47.984;7.842;2023-05-17T05:42:20;4.57;;;1.92;;
17696;SDS011;8967;47.984;7.842;2023-05-17T05:44:47;6.20;;;1.80;;
17696;SDS011;8967;47.984;7.842;2023-05-17T05:47:15;3.83;;;1.88;;
17696;SDS011;8967;47.984;7.842;2023-05-17T05:49:42;5.22;;;2.00;;
17696;SDS011;8967;47.984;7.842;2023-05-17T05:52:10;2.75;;;1.63;;
17696;SDS011;8967;47.984;7.842;2023-05-17T05:54:40;5.20;;;1.77;;
17696;SDS011;8967;47.984;7.842;2023-05-17T05:57:08;7.50;;;2.05;;
17696;SDS011;8967;47.984;7.842;2023-05-17T05:59:35;4.20;;;1.67;;
17696;SDS011;8967;47.984;7.842;2023-05-17T06:02:05;5.47;;;1.85;;
17696;SDS011;8967;47.984;7.842;2023-05-17T06:04:32;5.55;;;2.47;;
17696;SDS011;8967;47.984;7.842;2023-05-17T06:06:59;6.95;;;2.28;;
17696;SDS011;8967;47.984;7.842;2023-05-17T06:09:26;3.83;;;1.95;;
17696;SDS011;8967;47.984;7.842;2023-05-17T06:11:56;3.10;;;1.58;;
17696;SDS011;8967;47.984;7.842;2023-05-17T06:14:24;7.53;;;1.85;;
17696;SDS011;8967;47.984;7.842;2023-05-17T06:16:51;3.03;;;1.52;;
17696;SDS011;8967;47.984;7.842;2023-05-17T06:19:18;6.72;;;1.70;;
17696;SDS011;8967;47.984;7.842;2023-05-17T06:21:45;3.75;;;1.88;;
17696;SDS011;8967;47.984;7.842;2023-05-17T06:24:12;5.13;;;1.65;;
17696;SDS011;8967;47.984;7.842;2023-05-17T06:26:38;3.20;;;1.55;;
17696;SDS011;8967;47.984;7.842;2023-05-17T06:29:05;4.68;;;1.70;;
17696;SDS011;8967;47.984;7.842;2023-05-17T06:31:34;4.22;;;1.38;;
17696;SDS011;8967;47.984;7.842;2023-05-17T06:34:03;3.72;;;1.20;;
17696;SDS011;8967;47.984;7.842;2023-05-17T06:36:30;3.33;;;1.63;;
17696;SDS011;8967;47.984;7.842;2023-05-17T06:38:59;5.43;;;1.50;;
17696;SDS011;8967;47.984;7.842;2023-05-17T06:41:26;3.90;;;1.40;;
17696;SDS011;8967;47.984;7.842;2023-05-17T06:43:53;5.07;;;1.70;;
17696;SDS011;8967;47.984;7.842;2023-05-17T06:46:20;5.28;;;1.50;;
17696;SDS011;8967;47.984;7.842;2023-05-17T06:48:48;4.05;;;1.70;;
17696;SDS011;8967;47.984;7.842;2023-05-17T06:51:17;2.42;;;1.02;;
17696;SDS011;8967;47.984;7.842;2023-05-17T06:53:44;6.20;;;1.30;;
17696;SDS011;8967;47.984;7.842;2023-05-17T06:56:14;4.75;;;1.48;;
17696;SDS011;8967;47.984;7.842;2023-05-17T06:58:41;2.33;;;0.98;;
17696;SDS011;8967;47.984;7.842;2023-05-17T07:01:08;4.88;;;1.55;;
17696;SDS011;8967;47.984;7.842;2023-05-17T07:03:35;3.00;;;1.15;;
17696;SDS011;8967;47.984;7.842;2023-05-17T07:06:03;2.08;;;1.02;;
17696;SDS011;8967;47.984;7.842;2023-05-17T07:08:30;6.00;;;1.60;;
17696;SDS011;8967;47.984;7.842;2023-05-17T07:10:57;4.28;;;1.63;;
17696;SDS011;8967;47.984;7.842;2023-05-17T07:13:25;4.10;;;1.65;;
17696;SDS011;8967;47.984;7.842;2023-05-17T07:15:54;4.82;;;1.73;;
17696;SDS011;8967;47.984;7.842;2023-05-17T07:18:21;6.22;;;1.67;;
17696;SDS011;8967;47.984;7.842;2023-05-17T07:20:48;3.60;;;1.50;;
17696;SDS011;8967;47.984;7.842;2023-05-17T07:23:16;5.55;;;1.50;;
17696;SDS011;8967;47.984;7.842;2023-05-17T07:25:45;5.22;;;1.58;;
17696;SDS011;8967;47.984;7.842;2023-05-17T07:28:12;9.45;;;1.77;;
17696;SDS011;8967;47.984;7.842;2023-05-17T07:30:41;5.25;;;1.45;;
17696;SDS011;8967;47.984;7.842;2023-05-17T07:33:08;9.00;;;1.90;;
17696;SDS011;8967;47.984;7.842;2023-05-17T07:35:35;8.00;;;2.00;;
17696;SDS011;8967;47.984;7.842;2023-05-17T07:38:02;6.05;;;1.48;;
17696;SDS011;8967;47.984;7.842;2023-05-17T07:40:30;2.78;;;1.20;;
17696;SDS011;8967;47.984;7.842;2023-05-17T07:42:57;2.47;;;1.30;;
17696;SDS011;8967;47.984;7.842;2023-05-17T07:45:24;3.25;;;1.30;;
17696;SDS011;8967;47.984;7.842;2023-05-17T07:47:51;5.40;;;1.60;;
17696;SDS011;8967;47.984;7.842;2023-05-17T07:50:18;4.60;;;1.40;;
17696;SDS011;8967;47.984;7.842;2023-05-17T07:52:45;2.70;;;1.38;;
17696;SDS011;8967;47.984;7.842;2023-05-17T07:55:12;4.40;;;1.33;;
17696;SDS011;8967;47.984;7.842;2023-05-17T07:57:40;3.63;;;1.38;;
17696;SDS011;8967;47.984;7.842;2023-05-17T08:00:08;3.17;;;1.98;;
17696;SDS011;8967;47.984;7.842;2023-05-17T08:02:39;4.15;;;1.38;;
17696;SDS011;8967;47.984;7.842;2023-05-17T08:05:06;6.63;;;1.80;;
17696;SDS011;8967;47.984;7.842;2023-05-17T08:07:33;8.20;;;1.70;;
17696;SDS011;8967;47.984;7.842;2023-05-17T08:10:00;3.40;;;1.70;;
17696;SDS011;8967;47.984;7.842;2023-05-17T08:12:28;5.60;;;1.65;;
17696;SDS011;8967;47.984;7.842;2023-05-17T08:14:56;3.45;;;1.40;;
17696;SDS011;8967;47.984;7.842;2023-05-17T08:17:23;4.72;;;1.55;;
17696;SDS011;8967;47.984;7.842;2023-05-17T08:19:50;4.90;;;1.80;;
17696;SDS011;8967;47.984;7.842;2023-05-17T08:22:17;6.82;;;1.90;;
17696;SDS011;8967;47.984;7.842;2023-05-17T08:24:44;6.75;;;1.90;;
17696;SDS011;8967;47.984;7.842;2023-05-17T08:27:11;5.68;;;2.50;;
17696;SDS011;8967;47.984;7.842;2023-05-17T08:29:38;5.70;;;1.67;;
17696;SDS011;8967;47.984;7.842;2023-05-17T08:32:06;6.07;;;1.35;;
17696;SDS011;8967;47.984;7.842;2023-05-17T08:34:33;4.93;;;1.70;;
17696;SDS011;8967;47.984;7.842;2023-05-17T08:37:00;2.15;;;1.58;;
17696;SDS011;8967;47.984;7.842;2023-05-17T08:39:27;5.50;;;1.60;;
17696;SDS011;8967;47.984;7.842;2023-05-17T08:41:55;4.57;;;1.60;;
17696;SDS011;8967;47.984;7.842;2023-05-17T08:44:23;5.95;;;1.67;;
17696;SDS011;8967;47.984;7.842;2023-05-17T08:46:52;6.50;;;1.80;;
17696;SDS011;8967;47.984;7.842;2023-05-17T08:49:27;5.95;;;1.77;;
17696;SDS011;8967;47.984;7.842;2023-05-17T08:51:58;3.63;;;1.77;;
17696;SDS011;8967;47.984;7.842;2023-05-17T08:54:26;5.22;;;2.15;;
17696;SDS011;8967;47.984;7.842;2023-05-17T08:56:53;6.32;;;2.00;;
17696;SDS011;8967;47.984;7.842;2023-05-17T08:59:26;4.38;;;1.88;;
17696;SDS011;8967;47.984;7.842;2023-05-17T09:01:58;4.40;;;1.80;;
17696;SDS011;8967;47.984;7.842;2023-05-17T09:04:27;4.18;;;1.83;;
17696;SDS011;8967;47.984;7.842;2023-05-17T09:06:55;5.68;;;1.55;;
17696;SDS011;8967;47.984;7.842;2023-05-17T09:09:22;3.83;;;1.70;;
17696;SDS011;8967;47.984;7.842;2023-05-17T09:11:49;2.63;;;1.80;;
17696;SDS011;8967;47.984;7.842;2023-05-17T09:14:15;3.45;;;1.98;;
17696;SDS011;8967;47.984;7.842;2023-05-17T09:16:42;5.22;;;1.77;;
17696;SDS011;8967;47.984;7.842;2023-05-17T09:19:13;3.20;;;1.60;;
17696;SDS011;8967;47.984;7.842;2023-05-17T09:21:45;2.72;;;1.63;;
17696;SDS011;8967;47.984;7.842;2023-05-17T09:24:12;3.67;;;1.77;;
17696;SDS011;8967;47.984;7.842;2023-05-17T09:26:41;5.47;;;1.73;;
17696;SDS011;8967;47.984;7.842;2023-05-17T09:29:09;4.22;;;1.70;;
17696;SDS011;8967;47.984;7.842;2023-05-17T09:31:36;5.68;;;1.95;;
17696;SDS011;8967;47.984;7.842;2023-05-17T09:34:03;5.63;;;2.17;;
17696;SDS011;8967;47.984;7.842;2023-05-17T09:36:31;2.70;;;1.70;;
17696;SDS011;8967;47.984;7.842;2023-05-17T09:39:00;4.25;;;1.77;;
17696;SDS011;8967;47.984;7.842;2023-05-17T09:41:29;3.47;;;1.67;;
17696;SDS011;8967;47.984;7.842;2023-05-17T09:43:58;4.47;;;2.00;;
17696;SDS011;8967;47.984;7.842;2023-05-17T09:46:29;4.70;;;2.00;;
17696;SDS011;8967;47.984;7.842;2023-05-17T09:49:00;6.63;;;2.13;;
17696;SDS011;8967;47.984;7.842;2023-05-17T09:51:31;6.50;;;1.80;;
17696;SDS011;8967;47.984;7.842;2023-05-17T09:54:00;7.47;;;2.10;;
17696;SDS011;8967;47.984;7.842;2023-05-17T09:56:27;6.57;;;2.40;;
17696;SDS011;8967;47.984;7.842;2023-05-17T09:58:55;4.50;;;2.08;;
17696;SDS011;8967;47.984;7.842;2023-05-17T10:01:24;5.10;;;2.17;;
17696;SDS011;8967;47.984;7.842;2023-05-17T10:03:53;3.72;;;1.77;;
17696;SDS011;8967;47.984;7.842;2023-05-17T10:06:23;3.20;;;2.13;;
17696;SDS011;8967;47.984;7.842;2023-05-17T10:08:54;2.83;;;1.80;;
17696;SDS011;8967;47.984;7.842;2023-05-17T10:11:25;7.28;;;1.70;;
17696;SDS011;8967;47.984;7.842;2023-05-17T10:14:01;5.25;;;1.75;;
17696;SDS011;8967;47.984;7.842;2023-05-17T10:16:33;2.53;;;1.60;;
17696;SDS011;8967;47.984;7.842;2023-05-17T10:19:03;6.45;;;2.35;;
17696;SDS011;8967;47.984;7.842;2023-05-17T10:21:30;2.45;;;1.80;;
17696;SDS011;8967;47.984;7.842;2023-05-17T10:23:58;2.15;;;1.85;;
17696;SDS011;8967;47.984;7.842;2023-05-17T10:26:28;4.25;;;2.47;;
17696;SDS011;8967;47.984;7.842;2023-05-17T10:28:56;3.25;;;1.98;;
17696;SDS011;8967;47.984;7.842;2023-05-17T10:31:26;5.13;;;2.17;;
17696;SDS011;8967;47.984;7.842;2023-05-17T10:33:55;3.92;;;1.80;;
17696;SDS011;8967;47.984;7.842;2023-05-17T10:36:23;3.47;;;1.77;;
17696;SDS011;8967;47.984;7.842;2023-05-17T10:38:50;4.30;;;2.20;;
17696;SDS011;8967;47.984;7.842;2023-05-17T10:41:18;2.75;;;2.30;;
17696;SDS011;8967;47.984;7.842;2023-05-17T10:43:49;3.78;;;1.80;;
17696;SDS011;8967;47.984;7.842;2023-05-17T10:46:19;9.30;;;2.38;;
17696;SDS011;8967;47.984;7.842;2023-05-17T10:48:49;3.20;;;2.10;;
17696;SDS011;8967;47.984;7.842;2023-05-17T10:51:20;5.03;;;2.00;;
17696;SDS011;8967;47.984;7.842;2023-05-17T10:54:06;3.15;;;2.22;;
17696;SDS011;8967;47.984;7.842;2023-05-17T10:56:34;6.25;;;2.15;;
17696;SDS011;8967;47.984;7.842;2023-05-17T10:59:16;5.88;;;2.15;;
17696;SDS011;8967;47.984;7.842;2023-05-17T11:01:57;5.53;;;2.40;;
17696;SDS011;8967;47.984;7.842;2023-05-17T11:04:25;3.63;;;1.90;;
17696;SDS011;8967;47.984;7.842;2023-05-17T11:09:52;3.78;;;2.00;;
17696;SDS011;8967;47.984;7.842;2023-05-17T11:12:27;4.00;;;2.33;;
17696;SDS011;8967;47.984;7.842;2023-05-17T11:14:57;2.72;;;1.90;;
17696;SDS011;8967;47.984;7.842;2023-05-17T11:17:33;11.43;;;2.40;;
17696;SDS011;8967;47.984;7.842;2023-05-17T11:20:01;7.22;;;2.35;;
17696;SDS011;8967;47.984;7.842;2023-05-17T11:22:37;3.33;;;1.90;;
17696;SDS011;8967;47.984;7.842;2023-05-17T11:25:07;3.95;;;2.47;;
17696;SDS011;8967;47.984;7.842;2023-05-17T11:27:40;2.67;;;1.65;;
17696;SDS011;8967;47.984;7.842;2023-05-17T11:30:17;4.32;;;2.13;;
17696;SDS011;8967;47.984;7.842;2023-05-17T11:32:50;4.43;;;1.90;;
17696;SDS011;8967;47.984;7.842;2023-05-17T11:35:21;7.38;;;2.55;;
17696;SDS011;8967;47.984;7.842;2023-05-17T11:37:50;3.47;;;1.80;;
17696;SDS011;8967;47.984;7.842;2023-05-17T11:40:24;5.53;;;2.13;;
17696;SDS011;8967;47.984;7.842;2023-05-17T11:43:10;6.07;;;2.70;;
17696;SDS011;8967;47.984;7.842;2023-05-17T11:45:42;5.78;;;1.98;;
17696;SDS011;8967;47.984;7.842;2023-05-17T11:48:10;4.45;;;2.20;;
17696;SDS011;8967;47.984;7.842;2023-05-17T11:50:37;3.30;;;2.08;;
17696;SDS011;8967;47.984;7.842;2023-05-17T11:53:05;4.40;;;2.20;;
17696;SDS011;8967;47.984;7.842;2023-05-17T11:55:33;4.45;;;2.05;;
17696;SDS011;8967;47.984;7.842;2023-05-17T11:58:03;3.40;;;2.05;;
17696;SDS011;8967;47.984;7.842;2023-05-17T12:00:31;6.20;;;2.00;;
17696;SDS011;8967;47.984;7.842;2023-05-17T12:03:13;2.95;;;2.13;;
17696;SDS011;8967;47.984;7.842;2023-05-17T12:05:41;6.32;;;2.42;;
17696;SDS011;8967;47.984;7.842;2023-05-17T12:08:08;5.88;;;2.20;;
17696;SDS011;8967;47.984;7.842;2023-05-17T12:10:35;3.55;;;1.80;;
17696;SDS011;8967;47.984;7.842;2023-05-17T12:13:02;9.45;;;2.60;;
17696;SDS011;8967;47.984;7.842;2023-05-17T12:15:32;5.47;;;2.00;;
17696;SDS011;8967;47.984;7.842;2023-05-17T12:17:59;4.53;;;1.92;;
17696;SDS011;8967;47.984;7.842;2023-05-17T12:20:28;4.07;;;2.35;;
17696;SDS011;8967;47.984;7.842;2023-05-17T12:22:59;3.30;;;1.85;;
17696;SDS011;8967;47.984;7.842;2023-05-17T12:25:26;5.45;;;2.40;;
17696;SDS011;8967;47.984;7.842;2023-05-17T12:27:54;2.85;;;2.05;;
17696;SDS011;8967;47.984;7.842;2023-05-17T12:30:38;2.95;;;2.15;;
17696;SDS011;8967;47.984;7.842;2023-05-17T12:33:05;3.08;;;1.90;;
17696;SDS011;8967;47.984;7.842;2023-05-17T12:35:34;3.67;;;1.90;;
17696;SDS011;8967;47.984;7.842;2023-05-17T12:38:01;3.33;;;2.10;;
17696;SDS011;8967;47.984;7.842;2023-05-17T12:40:31;3.72;;;2.00;;
17696;SDS011;8967;47.984;7.842;2023-05-17T12:43:01;2.70;;;1.75;;
17696;SDS011;8967;47.984;7.842;2023-05-17T12:45:28;4.28;;;2.15;;
17696;SDS011;8967;47.984;7.842;2023-05-17T12:47:55;5.25;;;2.20;;
17696;SDS011;8967;47.984;7.842;2023-05-17T12:50:25;3.92;;;2.25;;
17696;SDS011;8967;47.984;7.842;2023-05-17T12:52:55;4.20;;;1.90;;
17696;SDS011;8967;47.984;7.842;2023-05-17T12:55:22;3.47;;;2.13;;
17696;SDS011;8967;47.984;7.842;2023-05-17T12:57:50;5.80;;;2.47;;
17696;SDS011;8967;47.984;7.842;2023-05-17T13:00:18;5.50;;;2.17;;
17696;SDS011;8967;47.984;7.842;2023-05-17T13:02:45;7.22;;;2.72;;
17696;SDS011;8967;47.984;7.842;2023-05-17T13:05:13;6.40;;;2.80;;
17696;SDS011;8967;47.984;7.842;2023-05-17T13:07:41;4.20;;;2.20;;
17696;SDS011;8967;47.984;7.842;2023-05-17T13:10:19;3.00;;;1.88;;
17696;SDS011;8967;47.984;7.842;2023-05-17T13:12:54;4.90;;;2.35;;
17696;SDS011;8967;47.984;7.842;2023-05-17T13:15:25;3.70;;;2.03;;
17696;SDS011;8967;47.984;7.842;2023-05-17T13:17:55;4.78;;;2.08;;
17696;SDS011;8967;47.984;7.842;2023-05-17T13:20:23;4.03;;;2.15;;
17696;SDS011;8967;47.984;7.842;2023-05-17T13:22:51;3.60;;;1.98;;
17696;SDS011;8967;47.984;7.842;2023-05-17T13:25:22;4.57;;;2.30;;
17696;SDS011;8967;47.984;7.842;2023-05-17T13:27:49;5.13;;;2.17;;
17696;SDS011;8967;47.984;7.842;2023-05-17T13:30:17;4.18;;;2.50;;
17696;SDS011;8967;47.984;7.842;2023-05-17T13:32:46;3.83;;;2.20;;
17696;SDS011;8967;47.984;7.842;2023-05-17T13:35:13;3.78;;;2.22;;
17696;SDS011;8967;47.984;7.842;2023-05-17T13:37:40;3.75;;;2.33;;
17696;SDS011;8967;47.984;7.842;2023-05-17T13:40:07;6.32;;;1.98;;
17696;SDS011;8967;47.984;7.842;2023-05-17T13:42:36;6.85;;;2.20;;
17696;SDS011;8967;47.984;7.842;2023-05-17T13:45:03;5.88;;;2.90;;
17696;SDS011;8967;47.984;7.842;2023-05-17T13:47:33;4.75;;;2.42;;
17696;SDS011;8967;47.984;7.842;2023-05-17T13:50:00;10.30;;;3.05;;
17696;SDS011;8967;47.984;7.842;2023-05-17T13:52:28;5.32;;;3.00;;
17696;SDS011;8967;47.984;7.842;2023-05-17T13:54:55;8.93;;;3.40;;
17696;SDS011;8967;47.984;7.842;2023-05-17T13:57:24;6.45;;;3.40;;
17696;SDS011;8967;47.984;7.842;2023-05-17T13:59:52;6.63;;;3.35;;
17696;SDS011;8967;47.984;7.842;2023-05-17T14:02:21;6.03;;;3.33;;
17696;SDS011;8967;47.984;7.842;2023-05-17T14:04:48;3.55;;;2.67;;
17696;SDS011;8967;47.984;7.842;2023-05-17T14:07:15;9.77;;;3.42;;
17696;SDS011;8967;47.984;7.842;2023-05-17T14:09:44;6.50;;;3.72;;
17696;SDS011;8967;47.984;7.842;2023-05-17T14:12:11;7.65;;;3.70;;
17696;SDS011;8967;47.984;7.842;2023-05-17T14:14:38;6.88;;;3.53;;
17696;SDS011;8967;47.984;7.842;2023-05-17T14:17:06;12.52;;;3.92;;
17696;SDS011;8967;47.984;7.842;2023-05-17T14:19:33;15.57;;;3.47;;
17696;SDS011;8967;47.984;7.842;2023-05-17T14:22:00;5.43;;;3.03;;
17696;SDS011;8967;47.984;7.842;2023-05-17T14:24:27;6.55;;;2.78;;
17696;SDS011;8967;47.984;7.842;2023-05-17T14:26:53;9.85;;;3.65;;
17696;SDS011;8967;47.984;7.842;2023-05-17T14:29:21;9.25;;;3.58;;
17696;SDS011;8967;47.984;7.842;2023-05-17T14:31:48;5.25;;;3.10;;
17696;SDS011;8967;47.984;7.842;2023-05-17T14:34:17;7.28;;;2.83;;
17696;SDS011;8967;47.984;7.842;2023-05-17T14:36:44;5.15;;;3.22;;
17696;SDS011;8967;47.984;7.842;2023-05-17T14:39:13;7.47;;;3.72;;
17696;SDS011;8967;47.984;7.842;2023-05-17T14:41:40;8.65;;;3.95;;
17696;SDS011;8967;47.984;7.842;2023-05-17T14:44:07;7.18;;;3.80;;
17696;SDS011;8967;47.984;7.842;2023-05-17T14:46:34;6.95;;;3.30;;
17696;SDS011;8967;47.984;7.842;2023-05-17T14:49:03;5.90;;;2.97;;
17696;SDS011;8967;47.984;7.842;2023-05-17T14:51:32;5.97;;;3.08;;
17696;SDS011;8967;47.984;7.842;2023-05-17T14:53:59;6.82;;;3.22;;
17696;SDS011;8967;47.984;7.842;2023-05-17T14:56:26;5.53;;;2.80;;
17696;SDS011;8967;47.984;7.842;2023-05-17T14:58:52;6.85;;;2.88;;
17696;SDS011;8967;47.984;7.842;2023-05-17T15:01:19;9.00;;;3.17;;
17696;SDS011;8967;47.984;7.842;2023-05-17T15:03:46;6.85;;;3.22;;
17696;SDS011;8967;47.984;7.842;2023-05-17T15:06:15;9.05;;;3.08;;
17696;SDS011;8967;47.984;7.842;2023-05-17T15:08:50;10.75;;;3.22;;
17696;SDS011;8967;47.984;7.842;2023-05-17T15:11:17;10.80;;;3.05;;
17696;SDS011;8967;47.984;7.842;2023-05-17T15:13:44;8.20;;;3.17;;